sensor_id;sensor_type;location;lat;lon;timestamp;P1;durP1;ratioP1;P2;durP2;ratioP2
76284;SDS011;71676;50.998;7.098;2024-01-15T00:00:37;8.82;;;4.88;;
76284;SDS011;71676;50.998;7.098;2024-01-15T00:03:06;20.33;;;8.25;;
76284;SDS011;71676;50.998;7.098;2024-01-15T00:05:33;13.07;;;7.03;;
76284;SDS011;71676;50.998;7.098;2024-01-15T00:07:59;21.35;;;10.55;;
76284;SDS011;71676;50.998;7.098;2024-01-15T00:12:52;24.23;;;10.18;;
76284;SDS011;71676;50.998;7.098;2024-01-15T00:17:45;12.50;;;6.22;;
76284;SDS011;71676;50.998;7.098;2024-01-15T00:20:13;19.10;;;8.30;;
76284;SDS011;71676;50.998;7.098;2024-01-15T00:22:40;25.20;;;9.90;;
76284;SDS011;71676;50.998;7.098;2024-01-15T00:25:07;23.85;;;9.30;;
76284;SDS011;71676;50.998;7.098;2024-01-15T00:27:33;9.70;;;5.05;;
76284;SDS011;71676;50.998;7.098;2024-01-15T00:32:26;26.52;;;11.65;;
76284;SDS011;71676;50.998;7.098;2024-01-15T00:37:21;23.45;;;11.02;;
76284;SDS011;71676;50.998;7.098;2024-01-15T00:39:47;16.10;;;7.22;;
76284;SDS011;71676;50.998;7.098;2024-01-15T00:44:41;26.17;;;9.80;;
76284;SDS011;71676;50.998;7.098;2024-01-15T00:47:08;26.73;;;10.50;;
76284;SDS011;71676;50.998;7.098;2024-01-15T00:52:01;25.88;;;11.00;;
76284;SDS011;71676;50.998;7.098;2024-01-15T00:56:55;11.40;;;5.43;;
76284;SDS011;71676;50.998;7.098;2024-01-15T00:59:22;26.08;;;10.02;;
76284;SDS011;71676;50.998;7.098;2024-01-15T01:01:47;26.13;;;10.70;;
76284;SDS011;71676;50.998;7.098;2024-01-15T01:04:14;29.33;;;12.27;;
76284;SDS011;71676;50.998;7.098;2024-01-15T01:09:07;15.30;;;6.32;;
76284;SDS011;71676;50.998;7.098;2024-01-15T01:11:35;31.35;;;12.65;;
76284;SDS011;71676;50.998;7.098;2024-01-15T01:14:01;30.38;;;10.85;;
76284;SDS011;71676;50.998;7.098;2024-01-15T01:16:29;29.58;;;11.90;;
76284;SDS011;71676;50.998;7.098;2024-01-15T01:18:56;25.90;;;11.07;;
76284;SDS011;71676;50.998;7.098;2024-01-15T01:23:49;28.35;;;11.00;;
76284;SDS011;71676;50.998;7.098;2024-01-15T01:28:44;27.27;;;10.88;;
76284;SDS011;71676;50.998;7.098;2024-01-15T01:31:10;14.32;;;6.18;;
76284;SDS011;71676;50.998;7.098;2024-01-15T01:36:06;28.23;;;11.90;;
76284;SDS011;71676;50.998;7.098;2024-01-15T01:38:33;19.48;;;8.85;;
76284;SDS011;71676;50.998;7.098;2024-01-15T01:43:26;27.40;;;12.27;;
76284;SDS011;71676;50.998;7.098;2024-01-15T01:48:23;20.42;;;9.02;;
76284;SDS011;71676;50.998;7.098;2024-01-15T01:50:51;30.67;;;10.95;;
76284;SDS011;71676;50.998;7.098;2024-01-15T01:53:18;26.30;;;12.13;;
76284;SDS011;71676;50.998;7.098;2024-01-15T01:55:45;19.50;;;8.48;;
76284;SDS011;71676;50.998;7.098;2024-01-15T01:58:14;17.85;;;8.25;;
76284;SDS011;71676;50.998;7.098;2024-01-15T02:00:41;32.63;;;13.07;;
76284;SDS011;71676;50.998;7.098;2024-01-15T02:03:09;27.50;;;11.95;;
76284;SDS011;71676;50.998;7.098;2024-01-15T02:05:36;24.73;;;11.48;;
76284;SDS011;71676;50.998;7.098;2024-01-15T02:08:04;14.65;;;6.30;;
76284;SDS011;71676;50.998;7.098;2024-01-15T02:10:31;27.55;;;11.77;;
76284;SDS011;71676;50.998;7.098;2024-01-15T02:12:58;25.23;;;11.45;;
76284;SDS011;71676;50.998;7.098;2024-01-15T02:15:24;23.40;;;10.52;;
76284;SDS011;71676;50.998;7.098;2024-01-15T02:17:58;26.25;;;12.07;;
76284;SDS011;71676;50.998;7.098;2024-01-15T02:20:26;28.13;;;12.63;;
76284;SDS011;71676;50.998;7.098;2024-01-15T02:22:53;24.67;;;10.32;;
76284;SDS011;71676;50.998;7.098;2024-01-15T02:27:47;22.25;;;10.63;;
76284;SDS011;71676;50.998;7.098;2024-01-15T02:30:14;23.40;;;11.57;;
76284;SDS011;71676;50.998;7.098;2024-01-15T02:32:41;24.20;;;10.00;;
76284;SDS011;71676;50.998;7.098;2024-01-15T02:37:35;24.90;;;10.55;;
76284;SDS011;71676;50.998;7.098;2024-01-15T02:40:02;25.48;;;10.50;;
76284;SDS011;71676;50.998;7.098;2024-01-15T02:42:30;29.27;;;11.95;;
76284;SDS011;71676;50.998;7.098;2024-01-15T02:44:57;26.92;;;12.20;;
76284;SDS011;71676;50.998;7.098;2024-01-15T02:47:23;24.80;;;12.18;;
76284;SDS011;71676;50.998;7.098;2024-01-15T02:49:50;15.80;;;7.43;;
76284;SDS011;71676;50.998;7.098;2024-01-15T02:52:17;21.20;;;9.75;;
76284;SDS011;71676;50.998;7.098;2024-01-15T02:54:43;26.63;;;13.25;;
76284;SDS011;71676;50.998;7.098;2024-01-15T02:59:38;15.18;;;6.45;;
76284;SDS011;71676;50.998;7.098;2024-01-15T03:02:04;23.25;;;10.73;;
76284;SDS011;71676;50.998;7.098;2024-01-15T03:06:57;24.13;;;10.13;;
76284;SDS011;71676;50.998;7.098;2024-01-15T03:11:50;12.45;;;4.68;;
76284;SDS011;71676;50.998;7.098;2024-01-15T03:14:17;25.40;;;11.38;;
76284;SDS011;71676;50.998;7.098;2024-01-15T03:19:11;29.90;;;11.80;;
76284;SDS011;71676;50.998;7.098;2024-01-15T03:21:38;22.35;;;9.85;;
76284;SDS011;71676;50.998;7.098;2024-01-15T03:26:31;22.23;;;9.27;;
76284;SDS011;71676;50.998;7.098;2024-01-15T03:31:24;27.08;;;12.60;;
76284;SDS011;71676;50.998;7.098;2024-01-15T03:36:18;23.00;;;10.77;;
76284;SDS011;71676;50.998;7.098;2024-01-15T03:38:45;27.15;;;11.90;;
76284;SDS011;71676;50.998;7.098;2024-01-15T03:41:11;24.55;;;11.25;;
76284;SDS011;71676;50.998;7.098;2024-01-15T03:43:38;29.35;;;10.65;;
76284;SDS011;71676;50.998;7.098;2024-01-15T03:46:05;16.70;;;9.25;;
76284;SDS011;71676;50.998;7.098;2024-01-15T03:48:33;22.63;;;10.90;;
76284;SDS011;71676;50.998;7.098;2024-01-15T03:51:00;27.00;;;11.90;;
76284;SDS011;71676;50.998;7.098;2024-01-15T03:53:27;27.83;;;10.57;;
76284;SDS011;71676;50.998;7.098;2024-01-15T03:58:20;22.60;;;10.68;;
76284;SDS011;71676;50.998;7.098;2024-01-15T04:00:47;21.35;;;8.75;;
76284;SDS011;71676;50.998;7.098;2024-01-15T04:03:14;23.20;;;11.25;;
76284;SDS011;71676;50.998;7.098;2024-01-15T04:05:40;24.52;;;11.15;;
76284;SDS011;71676;50.998;7.098;2024-01-15T04:10:34;21.00;;;7.93;;
76284;SDS011;71676;50.998;7.098;2024-01-15T04:15:28;23.35;;;11.00;;
76284;SDS011;71676;50.998;7.098;2024-01-15T04:20:21;24.73;;;11.50;;
76284;SDS011;71676;50.998;7.098;2024-01-15T04:22:48;26.63;;;11.05;;
76284;SDS011;71676;50.998;7.098;2024-01-15T04:27:42;24.77;;;11.10;;
76284;SDS011;71676;50.998;7.098;2024-01-15T04:32:35;24.27;;;11.27;;
76284;SDS011;71676;50.998;7.098;2024-01-15T04:37:29;23.48;;;10.68;;
76284;SDS011;71676;50.998;7.098;2024-01-15T04:42:23;23.13;;;10.07;;
76284;SDS011;71676;50.998;7.098;2024-01-15T04:44:50;22.25;;;10.75;;
76284;SDS011;71676;50.998;7.098;2024-01-15T04:49:43;17.48;;;8.10;;
76284;SDS011;71676;50.998;7.098;2024-01-15T04:54:36;22.90;;;10.65;;
76284;SDS011;71676;50.998;7.098;2024-01-15T04:57:03;23.92;;;11.20;;
76284;SDS011;71676;50.998;7.098;2024-01-15T04:59:31;21.52;;;10.57;;
76284;SDS011;71676;50.998;7.098;2024-01-15T05:01:58;23.73;;;10.40;;
76284;SDS011;71676;50.998;7.098;2024-01-15T05:06:51;20.80;;;10.27;;
76284;SDS011;71676;50.998;7.098;2024-01-15T05:11:44;21.98;;;10.02;;
76284;SDS011;71676;50.998;7.098;2024-01-15T05:14:10;22.63;;;11.15;;
76284;SDS011;71676;50.998;7.098;2024-01-15T05:16:39;25.27;;;11.18;;
76284;SDS011;71676;50.998;7.098;2024-01-15T05:19:07;18.50;;;8.48;;
76284;SDS011;71676;50.998;7.098;2024-01-15T05:21:33;21.48;;;10.55;;
76284;SDS011;71676;50.998;7.098;2024-01-15T05:26:26;28.35;;;10.60;;
76284;SDS011;71676;50.998;7.098;2024-01-15T05:31:19;23.88;;;10.32;;
76284;SDS011;71676;50.998;7.098;2024-01-15T05:36:14;21.02;;;8.95;;
76284;SDS011;71676;50.998;7.098;2024-01-15T05:41:07;21.83;;;9.85;;
76284;SDS011;71676;50.998;7.098;2024-01-15T05:45:59;15.38;;;7.40;;
76284;SDS011;71676;50.998;7.098;2024-01-15T05:50:54;16.73;;;8.15;;
76284;SDS011;71676;50.998;7.098;2024-01-15T05:53:19;8.85;;;4.38;;
76284;SDS011;71676;50.998;7.098;2024-01-15T05:58:13;14.55;;;6.20;;
76284;SDS011;71676;50.998;7.098;2024-01-15T06:03:07;12.40;;;6.20;;
76284;SDS011;71676;50.998;7.098;2024-01-15T06:05:34;18.60;;;8.80;;
76284;SDS011;71676;50.998;7.098;2024-01-15T06:10:31;16.40;;;6.50;;
76284;SDS011;71676;50.998;7.098;2024-01-15T06:12:58;17.65;;;7.32;;
76284;SDS011;71676;50.998;7.098;2024-01-15T06:17:51;13.95;;;6.90;;
76284;SDS011;71676;50.998;7.098;2024-01-15T06:20:17;11.65;;;5.63;;
76284;SDS011;71676;50.998;7.098;2024-01-15T06:25:12;15.93;;;5.90;;
76284;SDS011;71676;50.998;7.098;2024-01-15T06:27:38;12.05;;;5.25;;
76284;SDS011;71676;50.998;7.098;2024-01-15T06:32:32;10.43;;;4.95;;
76284;SDS011;71676;50.998;7.098;2024-01-15T06:37:25;9.90;;;4.32;;
76284;SDS011;71676;50.998;7.098;2024-01-15T06:42:19;14.23;;;4.80;;
76284;SDS011;71676;50.998;7.098;2024-01-15T06:44:47;15.60;;;6.75;;
76284;SDS011;71676;50.998;7.098;2024-01-15T06:47:13;16.60;;;6.70;;
76284;SDS011;71676;50.998;7.098;2024-01-15T06:49:40;15.20;;;6.45;;
76284;SDS011;71676;50.998;7.098;2024-01-15T06:54:34;16.08;;;7.20;;
76284;SDS011;71676;50.998;7.098;2024-01-15T06:57:01;19.85;;;7.55;;
76284;SDS011;71676;50.998;7.098;2024-01-15T06:59:29;14.90;;;8.07;;
76284;SDS011;71676;50.998;7.098;2024-01-15T07:01:55;15.75;;;6.70;;
76284;SDS011;71676;50.998;7.098;2024-01-15T07:04:22;16.95;;;9.43;;
76284;SDS011;71676;50.998;7.098;2024-01-15T07:06:49;13.57;;;6.47;;
76284;SDS011;71676;50.998;7.098;2024-01-15T07:09:15;13.98;;;6.93;;
76284;SDS011;71676;50.998;7.098;2024-01-15T07:11:44;14.30;;;8.35;;
76284;SDS011;71676;50.998;7.098;2024-01-15T07:14:11;17.02;;;8.85;;
76284;SDS011;71676;50.998;7.098;2024-01-15T07:16:39;10.82;;;5.63;;
76284;SDS011;71676;50.998;7.098;2024-01-15T07:19:06;16.73;;;6.15;;
76284;SDS011;71676;50.998;7.098;2024-01-15T07:23:59;18.70;;;7.75;;
76284;SDS011;71676;50.998;7.098;2024-01-15T07:26:25;13.40;;;5.93;;
76284;SDS011;71676;50.998;7.098;2024-01-15T07:31:18;19.35;;;8.70;;
76284;SDS011;71676;50.998;7.098;2024-01-15T07:33:46;16.40;;;8.05;;
76284;SDS011;71676;50.998;7.098;2024-01-15T07:36:13;15.70;;;6.55;;
76284;SDS011;71676;50.998;7.098;2024-01-15T07:38:40;18.58;;;9.48;;
76284;SDS011;71676;50.998;7.098;2024-01-15T07:41:08;18.40;;;4.88;;
76284;SDS011;71676;50.998;7.098;2024-01-15T07:46:01;18.33;;;8.80;;
76284;SDS011;71676;50.998;7.098;2024-01-15T07:50:55;17.95;;;7.70;;
76284;SDS011;71676;50.998;7.098;2024-01-15T07:53:21;8.90;;;3.97;;
76284;SDS011;71676;50.998;7.098;2024-01-15T07:58:14;17.05;;;8.25;;
76284;SDS011;71676;50.998;7.098;2024-01-15T08:03:07;19.48;;;9.13;;
76284;SDS011;71676;50.998;7.098;2024-01-15T08:08:02;15.00;;;7.25;;
76284;SDS011;71676;50.998;7.098;2024-01-15T08:10:28;15.23;;;7.70;;
76284;SDS011;71676;50.998;7.098;2024-01-15T08:12:55;9.90;;;4.50;;
76284;SDS011;71676;50.998;7.098;2024-01-15T08:17:48;18.38;;;8.57;;
76284;SDS011;71676;50.998;7.098;2024-01-15T08:20:15;20.70;;;9.50;;
76284;SDS011;71676;50.998;7.098;2024-01-15T08:25:10;22.75;;;9.32;;
76284;SDS011;71676;50.998;7.098;2024-01-15T08:27:38;16.17;;;8.15;;
76284;SDS011;71676;50.998;7.098;2024-01-15T08:30:05;22.67;;;10.75;;
76284;SDS011;71676;50.998;7.098;2024-01-15T08:32:32;14.52;;;5.15;;
76284;SDS011;71676;50.998;7.098;2024-01-15T08:35:01;11.50;;;5.55;;
76284;SDS011;71676;50.998;7.098;2024-01-15T08:37:29;21.13;;;9.35;;
76284;SDS011;71676;50.998;7.098;2024-01-15T08:42:23;10.18;;;5.70;;
76284;SDS011;71676;50.998;7.098;2024-01-15T08:44:49;15.23;;;7.35;;
76284;SDS011;71676;50.998;7.098;2024-01-15T08:49:43;18.15;;;10.30;;
76284;SDS011;71676;50.998;7.098;2024-01-15T08:52:11;21.98;;;10.60;;
76284;SDS011;71676;50.998;7.098;2024-01-15T08:54:38;19.48;;;8.55;;
76284;SDS011;71676;50.998;7.098;2024-01-15T08:59:33;22.58;;;9.75;;
76284;SDS011;71676;50.998;7.098;2024-01-15T09:01:59;20.17;;;10.77;;
76284;SDS011;71676;50.998;7.098;2024-01-15T09:06:52;20.10;;;8.68;;
76284;SDS011;71676;50.998;7.098;2024-01-15T09:11:45;16.15;;;7.63;;
76284;SDS011;71676;50.998;7.098;2024-01-15T09:14:13;10.13;;;5.10;;
76284;SDS011;71676;50.998;7.098;2024-01-15T09:19:07;16.20;;;7.93;;
76284;SDS011;71676;50.998;7.098;2024-01-15T09:21:33;13.93;;;6.35;;
76284;SDS011;71676;50.998;7.098;2024-01-15T09:26:26;15.68;;;6.72;;
76284;SDS011;71676;50.998;7.098;2024-01-15T09:31:19;17.92;;;8.27;;
76284;SDS011;71676;50.998;7.098;2024-01-15T09:33:47;18.02;;;9.52;;
76284;SDS011;71676;50.998;7.098;2024-01-15T09:36:14;12.68;;;6.25;;
76284;SDS011;71676;50.998;7.098;2024-01-15T09:38:41;12.85;;;6.07;;
76284;SDS011;71676;50.998;7.098;2024-01-15T09:41:07;16.67;;;7.95;;
76284;SDS011;71676;50.998;7.098;2024-01-15T09:43:34;17.60;;;8.93;;
76284;SDS011;71676;50.998;7.098;2024-01-15T09:46:03;11.43;;;6.10;;
76284;SDS011;71676;50.998;7.098;2024-01-15T09:48:30;16.70;;;8.73;;
76284;SDS011;71676;50.998;7.098;2024-01-15T09:51:00;11.05;;;6.03;;
76284;SDS011;71676;50.998;7.098;2024-01-15T09:53:27;13.43;;;6.72;;
76284;SDS011;71676;50.998;7.098;2024-01-15T09:55:54;14.45;;;8.07;;
76284;SDS011;71676;50.998;7.098;2024-01-15T09:58:21;10.88;;;5.95;;
76284;SDS011;71676;50.998;7.098;2024-01-15T10:00:47;13.35;;;6.38;;
76284;SDS011;71676;50.998;7.098;2024-01-15T10:03:15;8.27;;;4.15;;
76284;SDS011;71676;50.998;7.098;2024-01-15T10:05:41;12.15;;;6.18;;
76284;SDS011;71676;50.998;7.098;2024-01-15T10:08:11;13.02;;;6.03;;
76284;SDS011;71676;50.998;7.098;2024-01-15T10:10:37;10.63;;;5.55;;
76284;SDS011;71676;50.998;7.098;2024-01-15T10:13:04;14.50;;;6.82;;
76284;SDS011;71676;50.998;7.098;2024-01-15T10:15:33;13.07;;;6.97;;
76284;SDS011;71676;50.998;7.098;2024-01-15T10:18:01;12.57;;;6.45;;
76284;SDS011;71676;50.998;7.098;2024-01-15T10:20:28;11.98;;;6.82;;
76284;SDS011;71676;50.998;7.098;2024-01-15T10:22:57;10.93;;;5.40;;
76284;SDS011;71676;50.998;7.098;2024-01-15T10:25:26;11.57;;;5.88;;
76284;SDS011;71676;50.998;7.098;2024-01-15T10:27:59;7.63;;;3.85;;
76284;SDS011;71676;50.998;7.098;2024-01-15T10:30:27;9.02;;;5.00;;
76284;SDS011;71676;50.998;7.098;2024-01-15T10:32:57;11.75;;;5.72;;
76284;SDS011;71676;50.998;7.098;2024-01-15T10:35:26;5.88;;;3.58;;
76284;SDS011;71676;50.998;7.098;2024-01-15T10:37:54;10.88;;;5.38;;
76284;SDS011;71676;50.998;7.098;2024-01-15T10:40:21;10.13;;;4.85;;
76284;SDS011;71676;50.998;7.098;2024-01-15T10:42:49;10.75;;;5.40;;
76284;SDS011;71676;50.998;7.098;2024-01-15T10:45:16;11.15;;;4.82;;
76284;SDS011;71676;50.998;7.098;2024-01-15T10:47:43;12.63;;;5.20;;
76284;SDS011;71676;50.998;7.098;2024-01-15T10:50:11;7.25;;;3.25;;
76284;SDS011;71676;50.998;7.098;2024-01-15T10:52:38;10.00;;;4.22;;
76284;SDS011;71676;50.998;7.098;2024-01-15T10:55:06;9.50;;;4.93;;
76284;SDS011;71676;50.998;7.098;2024-01-15T10:57:35;11.40;;;4.30;;
76284;SDS011;71676;50.998;7.098;2024-01-15T11:00:04;8.73;;;4.38;;
76284;SDS011;71676;50.998;7.098;2024-01-15T11:02:32;8.60;;;4.63;;
76284;SDS011;71676;50.998;7.098;2024-01-15T11:05:00;8.38;;;4.32;;
76284;SDS011;71676;50.998;7.098;2024-01-15T11:07:27;4.90;;;2.58;;
76284;SDS011;71676;50.998;7.098;2024-01-15T11:09:56;7.70;;;3.90;;
76284;SDS011;71676;50.998;7.098;2024-01-15T11:12:24;8.45;;;4.40;;
76284;SDS011;71676;50.998;7.098;2024-01-15T11:14:51;6.72;;;3.50;;
76284;SDS011;71676;50.998;7.098;2024-01-15T11:17:21;7.07;;;3.75;;
76284;SDS011;71676;50.998;7.098;2024-01-15T11:19:48;2.80;;;1.70;;
76284;SDS011;71676;50.998;7.098;2024-01-15T11:25:24;1.90;;;1.20;;
76284;SDS011;71676;50.998;7.098;2024-01-15T11:28:01;5.57;;;2.33;;
76284;SDS011;71676;50.998;7.098;2024-01-15T11:30:28;6.07;;;3.35;;
76284;SDS011;71676;50.998;7.098;2024-01-15T11:32:56;7.85;;;2.97;;
76284;SDS011;71676;50.998;7.098;2024-01-15T11:35:22;3.65;;;1.88;;
76284;SDS011;71676;50.998;7.098;2024-01-15T11:38:09;4.60;;;2.38;;
76284;SDS011;71676;50.998;7.098;2024-01-15T11:40:36;5.05;;;2.50;;
76284;SDS011;71676;50.998;7.098;2024-01-15T11:43:03;5.28;;;2.80;;
76284;SDS011;71676;50.998;7.098;2024-01-15T11:45:31;4.95;;;2.67;;
76284;SDS011;71676;50.998;7.098;2024-01-15T11:48:13;5.60;;;2.90;;
76284;SDS011;71676;50.998;7.098;2024-01-15T11:50:40;3.63;;;1.67;;
76284;SDS011;71676;50.998;7.098;2024-01-15T11:53:11;4.45;;;2.05;;
76284;SDS011;71676;50.998;7.098;2024-01-15T11:55:44;3.53;;;2.05;;
76284;SDS011;71676;50.998;7.098;2024-01-15T11:58:11;7.47;;;2.85;;
76284;SDS011;71676;50.998;7.098;2024-01-15T12:00:42;6.03;;;2.88;;
76284;SDS011;71676;50.998;7.098;2024-01-15T12:03:10;4.97;;;2.22;;
76284;SDS011;71676;50.998;7.098;2024-01-15T12:05:38;5.50;;;3.00;;
76284;SDS011;71676;50.998;7.098;2024-01-15T12:08:07;4.97;;;2.60;;
76284;SDS011;71676;50.998;7.098;2024-01-15T12:10:36;3.65;;;1.58;;
76284;SDS011;71676;50.998;7.098;2024-01-15T12:13:04;6.32;;;3.35;;
76284;SDS011;71676;50.998;7.098;2024-01-15T12:15:32;5.38;;;1.92;;
76284;SDS011;71676;50.998;7.098;2024-01-15T12:18:00;6.70;;;3.42;;
76284;SDS011;71676;50.998;7.098;2024-01-15T12:20:28;4.13;;;2.22;;
76284;SDS011;71676;50.998;7.098;2024-01-15T12:22:57;8.20;;;3.42;;
76284;SDS011;71676;50.998;7.098;2024-01-15T12:25:25;8.50;;;3.80;;
76284;SDS011;71676;50.998;7.098;2024-01-15T12:27:53;7.10;;;3.78;;
76284;SDS011;71676;50.998;7.098;2024-01-15T12:30:20;5.70;;;3.45;;
76284;SDS011;71676;50.998;7.098;2024-01-15T12:32:47;8.30;;;4.53;;
76284;SDS011;71676;50.998;7.098;2024-01-15T12:35:14;8.40;;;3.50;;
76284;SDS011;71676;50.998;7.098;2024-01-15T12:37:41;6.93;;;3.30;;
76284;SDS011;71676;50.998;7.098;2024-01-15T12:40:10;6.13;;;2.80;;
76284;SDS011;71676;50.998;7.098;2024-01-15T12:42:37;7.75;;;4.03;;
76284;SDS011;71676;50.998;7.098;2024-01-15T12:45:05;9.13;;;4.20;;
76284;SDS011;71676;50.998;7.098;2024-01-15T12:47:33;9.73;;;3.88;;
76284;SDS011;71676;50.998;7.098;2024-01-15T12:50:00;10.02;;;4.85;;
76284;SDS011;71676;50.998;7.098;2024-01-15T12:52:27;7.38;;;3.92;;
76284;SDS011;71676;50.998;7.098;2024-01-15T12:54:54;6.53;;;3.28;;
76284;SDS011;71676;50.998;7.098;2024-01-15T12:57:22;8.57;;;3.33;;
76284;SDS011;71676;50.998;7.098;2024-01-15T12:59:48;10.98;;;4.80;;
76284;SDS011;71676;50.998;7.098;2024-01-15T13:02:16;10.07;;;5.60;;
76284;SDS011;71676;50.998;7.098;2024-01-15T13:04:43;11.48;;;4.38;;
76284;SDS011;71676;50.998;7.098;2024-01-15T13:07:09;9.68;;;3.95;;
76284;SDS011;71676;50.998;7.098;2024-01-15T13:09:36;12.70;;;4.50;;
76284;SDS011;71676;50.998;7.098;2024-01-15T13:12:03;8.07;;;3.72;;
76284;SDS011;71676;50.998;7.098;2024-01-15T13:14:32;6.05;;;2.33;;
76284;SDS011;71676;50.998;7.098;2024-01-15T13:16:59;7.90;;;2.65;;
76284;SDS011;71676;50.998;7.098;2024-01-15T13:19:25;9.18;;;4.47;;
76284;SDS011;71676;50.998;7.098;2024-01-15T13:21:52;7.82;;;3.10;;
76284;SDS011;71676;50.998;7.098;2024-01-15T13:24:19;6.85;;;3.10;;
76284;SDS011;71676;50.998;7.098;2024-01-15T13:26:46;12.57;;;4.47;;
76284;SDS011;71676;50.998;7.098;2024-01-15T13:29:12;10.07;;;4.25;;
76284;SDS011;71676;50.998;7.098;2024-01-15T13:31:41;6.00;;;2.83;;
76284;SDS011;71676;50.998;7.098;2024-01-15T13:34:07;6.63;;;3.17;;
76284;SDS011;71676;50.998;7.098;2024-01-15T13:36:35;8.10;;;2.00;;
76284;SDS011;71676;50.998;7.098;2024-01-15T13:39:04;8.18;;;3.53;;
76284;SDS011;71676;50.998;7.098;2024-01-15T13:41:33;8.88;;;3.35;;
76284;SDS011;71676;50.998;7.098;2024-01-15T13:44:00;9.43;;;3.05;;
76284;SDS011;71676;50.998;7.098;2024-01-15T13:46:28;7.90;;;3.50;;
76284;SDS011;71676;50.998;7.098;2024-01-15T13:48:57;8.05;;;3.20;;
76284;SDS011;71676;50.998;7.098;2024-01-15T13:51:23;7.47;;;2.75;;
76284;SDS011;71676;50.998;7.098;2024-01-15T13:53:50;9.23;;;3.30;;
76284;SDS011;71676;50.998;7.098;2024-01-15T13:56:18;10.07;;;4.18;;
76284;SDS011;71676;50.998;7.098;2024-01-15T13:58:44;2.35;;;1.38;;
76284;SDS011;71676;50.998;7.098;2024-01-15T14:01:13;6.68;;;3.95;;
76284;SDS011;71676;50.998;7.098;2024-01-15T14:03:39;6.30;;;2.35;;
76284;SDS011;71676;50.998;7.098;2024-01-15T14:06:07;4.97;;;2.67;;
76284;SDS011;71676;50.998;7.098;2024-01-15T14:08:35;5.28;;;2.65;;
76284;SDS011;71676;50.998;7.098;2024-01-15T14:11:02;6.50;;;2.42;;
76284;SDS011;71676;50.998;7.098;2024-01-15T14:13:31;4.03;;;2.38;;
76284;SDS011;71676;50.998;7.098;2024-01-15T14:15:57;5.97;;;2.80;;
76284;SDS011;71676;50.998;7.098;2024-01-15T14:18:25;3.65;;;2.00;;
76284;SDS011;71676;50.998;7.098;2024-01-15T14:20:51;5.50;;;2.78;;
76284;SDS011;71676;50.998;7.098;2024-01-15T14:23:20;5.45;;;2.03;;
76284;SDS011;71676;50.998;7.098;2024-01-15T14:25:46;4.90;;;2.60;;
76284;SDS011;71676;50.998;7.098;2024-01-15T14:28:13;6.70;;;3.00;;
76284;SDS011;71676;50.998;7.098;2024-01-15T14:30:40;5.55;;;2.63;;
76284;SDS011;71676;50.998;7.098;2024-01-15T14:33:06;5.53;;;2.40;;
76284;SDS011;71676;50.998;7.098;2024-01-15T14:35:33;5.63;;;2.50;;
76284;SDS011;71676;50.998;7.098;2024-01-15T14:38:00;5.60;;;2.28;;
76284;SDS011;71676;50.998;7.098;2024-01-15T14:40:28;5.93;;;2.53;;
76284;SDS011;71676;50.998;7.098;2024-01-15T14:42:55;6.55;;;2.30;;
76284;SDS011;71676;50.998;7.098;2024-01-15T14:45:22;4.68;;;2.30;;
76284;SDS011;71676;50.998;7.098;2024-01-15T14:47:48;6.00;;;2.30;;
76284;SDS011;71676;50.998;7.098;2024-01-15T14:50:15;5.53;;;2.67;;
76284;SDS011;71676;50.998;7.098;2024-01-15T14:52:42;7.00;;;2.55;;
76284;SDS011;71676;50.998;7.098;2024-01-15T14:55:09;8.10;;;2.28;;
76284;SDS011;71676;50.998;7.098;2024-01-15T14:57:38;6.88;;;3.78;;
76284;SDS011;71676;50.998;7.098;2024-01-15T15:00:05;6.07;;;2.20;;
76284;SDS011;71676;50.998;7.098;2024-01-15T15:02:33;6.70;;;3.20;;
76284;SDS011;71676;50.998;7.098;2024-01-15T15:05:01;4.90;;;2.70;;
76284;SDS011;71676;50.998;7.098;2024-01-15T15:07:28;4.57;;;2.00;;
76284;SDS011;71676;50.998;7.098;2024-01-15T15:09:55;4.75;;;2.08;;
76284;SDS011;71676;50.998;7.098;2024-01-15T15:12:22;1.80;;;1.38;;
76284;SDS011;71676;50.998;7.098;2024-01-15T15:14:50;5.07;;;2.88;;
76284;SDS011;71676;50.998;7.098;2024-01-15T15:17:16;3.33;;;1.80;;
76284;SDS011;71676;50.998;7.098;2024-01-15T15:19:43;8.73;;;2.45;;
76284;SDS011;71676;50.998;7.098;2024-01-15T15:22:10;5.60;;;2.40;;
76284;SDS011;71676;50.998;7.098;2024-01-15T15:24:36;5.45;;;2.55;;
76284;SDS011;71676;50.998;7.098;2024-01-15T15:27:04;6.95;;;2.88;;
76284;SDS011;71676;50.998;7.098;2024-01-15T15:29:31;7.25;;;3.95;;
76284;SDS011;71676;50.998;7.098;2024-01-15T15:32:00;6.53;;;3.03;;
76284;SDS011;71676;50.998;7.098;2024-01-15T15:34:26;5.25;;;2.78;;
76284;SDS011;71676;50.998;7.098;2024-01-15T15:36:53;5.50;;;2.45;;
76284;SDS011;71676;50.998;7.098;2024-01-15T15:39:20;5.30;;;2.30;;
76284;SDS011;71676;50.998;7.098;2024-01-15T15:41:46;5.57;;;2.70;;
76284;SDS011;71676;50.998;7.098;2024-01-15T15:44:14;4.82;;;2.38;;
76284;SDS011;71676;50.998;7.098;2024-01-15T15:46:41;6.35;;;2.50;;
76284;SDS011;71676;50.998;7.098;2024-01-15T15:49:10;7.75;;;3.20;;
76284;SDS011;71676;50.998;7.098;2024-01-15T15:51:37;5.22;;;2.10;;
76284;SDS011;71676;50.998;7.098;2024-01-15T15:54:03;8.05;;;5.53;;
76284;SDS011;71676;50.998;7.098;2024-01-15T15:56:30;6.47;;;2.97;;
76284;SDS011;71676;50.998;7.098;2024-01-15T15:59:03;6.35;;;4.18;;
76284;SDS011;71676;50.998;7.098;2024-01-15T16:01:29;5.32;;;2.50;;
76284;SDS011;71676;50.998;7.098;2024-01-15T16:03:56;8.57;;;2.90;;
76284;SDS011;71676;50.998;7.098;2024-01-15T16:06:24;6.13;;;2.55;;
76284;SDS011;71676;50.998;7.098;2024-01-15T16:08:51;6.03;;;3.03;;
76284;SDS011;71676;50.998;7.098;2024-01-15T16:11:17;6.10;;;2.63;;
76284;SDS011;71676;50.998;7.098;2024-01-15T16:13:44;5.50;;;2.25;;
76284;SDS011;71676;50.998;7.098;2024-01-15T16:16:11;6.55;;;3.05;;
76284;SDS011;71676;50.998;7.098;2024-01-15T16:21:04;6.82;;;2.88;;
76284;SDS011;71676;50.998;7.098;2024-01-15T16:23:33;4.68;;;2.58;;
76284;SDS011;71676;50.998;7.098;2024-01-15T16:26:00;7.78;;;3.80;;
76284;SDS011;71676;50.998;7.098;2024-01-15T16:28:27;7.90;;;3.15;;
76284;SDS011;71676;50.998;7.098;2024-01-15T16:30:53;6.28;;;2.85;;
76284;SDS011;71676;50.998;7.098;2024-01-15T16:33:20;6.13;;;3.20;;
76284;SDS011;71676;50.998;7.098;2024-01-15T16:35:46;3.33;;;1.35;;
76284;SDS011;71676;50.998;7.098;2024-01-15T16:38:13;2.72;;;1.50;;
76284;SDS011;71676;50.998;7.098;2024-01-15T16:40:41;3.58;;;2.10;;
76284;SDS011;71676;50.998;7.098;2024-01-15T16:43:08;4.88;;;2.47;;
76284;SDS011;71676;50.998;7.098;2024-01-15T16:45:35;7.47;;;2.80;;
76284;SDS011;71676;50.998;7.098;2024-01-15T16:48:05;5.28;;;2.47;;
76284;SDS011;71676;50.998;7.098;2024-01-15T16:50:32;5.55;;;2.90;;
76284;SDS011;71676;50.998;7.098;2024-01-15T16:52:58;4.05;;;1.73;;
76284;SDS011;71676;50.998;7.098;2024-01-15T16:55:26;7.32;;;3.47;;
76284;SDS011;71676;50.998;7.098;2024-01-15T16:57:54;6.78;;;2.83;;
76284;SDS011;71676;50.998;7.098;2024-01-15T17:00:21;6.68;;;3.10;;
76284;SDS011;71676;50.998;7.098;2024-01-15T17:05:14;4.05;;;1.83;;
76284;SDS011;71676;50.998;7.098;2024-01-15T17:07:41;3.10;;;1.30;;
76284;SDS011;71676;50.998;7.098;2024-01-15T17:10:08;7.72;;;3.53;;
76284;SDS011;71676;50.998;7.098;2024-01-15T17:12:35;5.28;;;2.65;;
76284;SDS011;71676;50.998;7.098;2024-01-15T17:15:05;7.70;;;2.75;;
76284;SDS011;71676;50.998;7.098;2024-01-15T17:17:32;9.23;;;3.83;;
76284;SDS011;71676;50.998;7.098;2024-01-15T17:19:58;7.93;;;3.42;;
76284;SDS011;71676;50.998;7.098;2024-01-15T17:22:25;8.20;;;4.15;;
76284;SDS011;71676;50.998;7.098;2024-01-15T17:24:52;9.30;;;4.20;;
76284;SDS011;71676;50.998;7.098;2024-01-15T17:27:18;5.78;;;2.83;;